Time;durP1;ratioP1;P1;durP2;ratioP2;P2;SDS_P1;SDS_P2;PMS_P1;PMS_P2;Temp;Humidity;BMP_temperature;BMP_pressure;BME280_temperature;BME280_humidity;BME280_pressure;Samples;Min_cycle;Max_cycle;Signal;HPM_P1;HPM_P2
2023/05/24 07:01:31;;;;;;;0.10;0.10;;;19.40;99.90;23.70;102470.00;;;;6340585;22;20232;-72
2023/05/24 07:03:58;;;;;;;0.10;0.10;;;19.70;99.90;24.30;102431.00;;;;6313495;22;20223;-72
2023/05/24 07:06:33;;;;;;;0.30;0.30;;;20.20;99.90;24.00;102469.00;;;;6313472;22;20219;-72
2023/05/24 07:09:00;;;;;;;0.10;0.10;;;20.30;99.90;25.10;102459.00;;;;6340469;22;20463;-72
2023/05/24 07:11:27;;;;;;;0.10;0.10;;;21.00;99.90;26.10;102457.00;;;;6313450;22;20140;-73
2023/05/24 07:13:53;;;;;;;0.32;0.32;;;22.30;99.90;27.40;102445.00;;;;6312972;22;20568;-72
2023/05/24 07:16:19;;;;;;;0.10;0.10;;;23.00;99.90;27.70;102447.00;;;;6313251;22;20152;-73
2023/05/24 07:18:45;;;;;;;7.88;1.05;;;23.80;99.90;28.70;102439.00;;;;6340169;22;20515;-72
2023/05/24 07:21:11;;;;;;;0.10;0.10;;;24.40;99.90;28.50;102439.00;;;;6313323;22;20140;-72
2023/05/24 07:23:40;;;;;;;0.95;0.30;;;24.60;99.90;25.00;102449.00;;;;6340081;22;20220;-72
2023/05/24 07:26:07;;;;;;;0.43;0.40;;;23.20;99.90;27.00;102440.00;;;;6286942;22;20152;-72
2023/05/24 07:28:36;;;;;;;0.75;0.75;;;23.10;99.90;26.70;102443.00;;;;6313373;22;20136;-72
2023/05/24 07:31:03;;;;;;;0.47;0.47;;;22.90;99.90;25.70;102460.00;;;;6313287;22;20159;-72
2023/05/24 07:33:29;;;;;;;0.10;0.10;;;22.30;99.90;24.40;102452.00;;;;6313108;22;20189;-72
2023/05/24 07:35:57;;;;;;;0.85;0.85;;;21.50;99.90;24.30;102423.00;;;;6313048;22;20148;-72
2023/05/24 07:38:23;;;;;;;0.13;0.13;;;21.20;99.90;24.00;102463.00;;;;6312234;22;20639;-73
2023/05/24 07:40:48;;;;;;;0.10;0.10;;;20.60;99.90;24.40;102460.00;;;;6312887;22;20155;-72
2023/05/24 07:43:53;;;;;;;0.30;0.30;;;20.80;99.90;24.70;102449.00;;;;6287134;22;20171;-72
2023/05/24 07:46:39;;;;;;;0.43;0.43;;;21.00;99.90;23.50;102469.00;;;;6288383;22;20151;-72
2023/05/24 07:49:05;;;;;;;0.10;0.10;;;20.50;99.90;24.40;102450.00;;;;6312292;22;20599;-72
2023/05/24 07:51:31;;;;;;;0.40;0.40;;;20.30;99.90;23.70;102445.00;;;;6339504;22;20143;-72
2023/05/24 07:53:57;;;;;;;0.10;0.10;;;20.40;99.90;24.10;102455.00;;;;6312795;22;20196;-72
2023/05/24 07:56:23;;;;;;;0.50;0.50;;;20.20;99.90;23.20;102466.00;;;;6286508;22;20483;-72
2023/05/24 07:58:50;;;;;;;0.30;0.30;;;20.10;99.90;19.80;102503.00;;;;6312563;22;20140;-72
2023/05/24 08:01:19;;;;;;;0.20;0.20;;;18.50;99.90;20.80;102495.00;;;;6312689;22;20152;-72
2023/05/24 08:03:46;;;;;;;3.63;0.50;;;17.70;99.90;19.40;102461.00;;;;6312651;22;20198;-71
2023/05/24 08:06:15;;;;;;;0.10;0.10;;;17.20;99.90;19.90;102499.00;;;;6311695;22;20159;-72
2023/05/24 08:08:41;;;;;;;0.60;0.60;;;16.70;99.90;20.30;102503.00;;;;6339693;22;20134;-72
2023/05/24 08:11:15;;;;;;;0.20;0.20;;;17.30;99.90;21.00;102496.00;;;;6312722;22;20200;-72
2023/05/24 08:13:41;;;;;;;0.40;0.40;;;17.30;99.90;21.20;102481.00;;;;6286604;22;20222;-72
2023/05/24 08:16:07;;;;;;;0.50;0.50;;;17.60;99.90;19.50;102518.00;;;;6340010;22;20145;-71
2023/05/24 08:18:33;;;;;;;0.20;0.20;;;17.10;99.90;19.30;102507.00;;;;6286237;22;20646;-72
2023/05/24 08:20:59;;;;;;;0.10;0.10;;;16.60;99.90;20.70;102488.00;;;;6312456;22;20221;-72
2023/05/24 08:23:28;;;;;;;2.00;0.50;;;17.00;99.90;20.90;102497.00;;;;6339573;22;20553;-71
2023/05/24 08:25:56;;;;;;;0.97;0.90;;;17.40;99.90;21.20;102490.00;;;;6287220;22;20207;-72
2023/05/24 08:28:22;;;;;;;0.50;0.50;;;17.80;99.90;21.00;102483.00;;;;6286695;22;20159;-72
2023/05/24 08:30:48;;;;;;;0.13;0.13;;;17.60;99.90;20.70;102477.00;;;;6311875;22;20158;-72
2023/05/24 08:33:14;;;;;;;0.63;0.63;;;17.80;99.90;22.00;102468.00;;;;6286727;22;20591;-72
2023/05/24 08:35:42;;;;;;;0.57;0.57;;;18.30;99.90;22.10;102460.00;;;;6312067;22;20477;-72
2023/05/24 08:38:08;;;;;;;0.20;0.20;;;18.90;99.90;22.80;102464.00;;;;6339942;22;20219;-72
2023/05/24 08:40:37;;;;;;;0.10;0.10;;;19.40;99.90;24.20;102433.00;;;;6312157;22;20195;-72
2023/05/24 08:43:10;;;;;;;0.10;0.10;;;20.20;99.90;25.30;102445.00;;;;6286540;22;20183;-72
2023/05/24 08:45:39;;;;;;;0.10;0.10;;;21.20;99.90;26.20;102402.00;;;;6287707;22;20584;-72
2023/05/24 08:48:09;;;;;;;0.73;0.73;;;21.80;99.90;25.50;102446.00;;;;6286377;22;20182;-72
2023/05/24 08:50:35;;;;;;;0.10;0.10;;;22.10;99.90;26.20;102434.00;;;;6312334;22;20184;-72
2023/05/24 08:53:40;;;;;;;0.20;0.20;;;22.40;99.90;24.40;102421.00;;;;6286514;22;20567;-72
2023/05/24 08:56:10;;;;;;;0.10;0.10;;;22.20;99.90;23.50;102468.00;;;;6286508;22;20167;-72
2023/05/24 08:58:40;;;;;;;1.08;0.75;;;21.40;99.90;26.40;102428.00;;;;6312662;22;20136;-73
2023/05/24 09:01:06;;;;;;;0.57;0.57;;;22.30;99.90;27.00;102438.00;;;;6310794;22;20243;-73
2023/05/24 09:03:35;;;;;;;0.10;0.10;;;23.40;99.90;28.40;102427.00;;;;6255071;22;20183;-72
2023/05/24 09:06:03;;;;;;;0.10;0.10;;;23.90;99.90;28.90;102427.00;;;;6255650;22;20156;-73
2023/05/24 09:08:32;;;;;;;0.50;0.50;;;24.70;99.90;28.20;102420.00;;;;6281160;22;20148;-73
2023/05/24 09:10:59;;;;;;;0.10;0.10;;;24.80;99.90;28.70;102418.00;;;;6281763;22;20203;-72
2023/05/24 09:13:26;;;;;;;0.10;0.10;;;24.80;99.90;26.20;102416.00;;;;6280745;22;20229;-72
2023/05/24 09:15:55;;;;;;;0.10;0.10;;;23.90;99.90;25.30;102446.00;;;;6280310;22;20589;-72
2023/05/24 09:18:21;;;;;;;0.10;0.10;;;22.60;99.90;26.20;102442.00;;;;6280351;22;20140;-72
2023/05/24 09:20:47;;;;;;;0.10;0.10;;;22.70;99.90;27.60;102426.00;;;;6255206;22;20247;-73
2023/05/24 09:23:14;;;;;;;0.10;0.10;;;23.20;99.90;27.50;102438.00;;;;6255455;22;20177;-72
2023/05/24 09:25:45;;;;;;;0.20;0.20;;;23.50;99.90;27.50;102430.00;;;;6280711;22;20140;-73
2023/05/24 09:28:17;;;;;;;0.28;0.28;;;23.60;99.90;28.50;102428.00;;;;6281021;22;20146;-73
2023/05/24 09:30:58;;;;;;;2.70;2.60;;;24.20;99.90;28.20;102429.00;;;;6280544;22;20160;-73
2023/05/24 09:33:30;;;;;;;0.20;0.20;;;24.60;99.90;28.60;102428.00;;;;6280187;22;20145;-73
2023/05/24 09:36:02;;;;;;;2.28;0.68;;;24.90;99.90;27.70;102437.00;;;;6255543;22;20565;-74
2023/05/24 09:38:28;;;;;;;0.50;0.50;;;24.30;99.90;27.70;102429.00;;;;6255222;22;20159;-74
2023/05/24 09:41:12;;;;;;;0.50;0.50;;;24.70;99.90;26.10;102442.00;;;;6280879;22;20554;-74
2023/05/24 09:43:48;;;;;;;1.40;1.20;;;23.90;99.90;26.10;102442.00;;;;6280714;22;20543;-74
2023/05/24 09:46:21;;;;;;;0.50;0.50;;;23.30;99.90;23.70;102458.00;;;;6255040;22;20154;-73
2023/05/24 09:49:08;;;;;;;2.08;1.88;;;22.00;99.90;25.10;102427.00;;;;6280627;22;20178;-73
2023/05/24 09:51:39;;;;;;;0.10;0.10;;;21.80;99.90;26.70;102413.00;;;;6280874;22;20168;-74
2023/05/24 09:54:06;;;;;;;0.20;0.20;;;22.80;99.90;26.40;102433.00;;;;6255148;22;20152;-74
2023/05/24 09:56:33;;;;;;;0.10;0.10;;;23.00;99.90;27.20;102421.00;;;;6307971;22;20223;-73
2023/05/24 09:59:20;;;;;;;0.28;0.28;;;23.30;99.90;27.30;102435.00;;;;6280438;22;20763;-73
2023/05/24 10:01:46;;;;;;;0.63;0.63;;;23.60;99.90;23.30;102459.00;;;;6253952;22;20192;-73
2023/05/24 10:04:12;;;;;;;1.02;1.00;;;21.90;99.90;25.70;102435.00;;;;6280295;22;20674;-73
2023/05/24 10:06:46;;;;;;;0.20;0.20;;;22.30;99.90;24.80;102443.00;;;;6254995;22;20152;-74
2023/05/24 10:09:14;;;;;;;0.52;0.52;;;22.30;99.90;23.60;102435.00;;;;6255113;22;20163;-73
2023/05/24 10:11:41;;;;;;;0.10;0.10;;;21.80;99.90;24.80;102392.00;;;;6280261;22;20136;-73
2023/05/24 10:14:09;;;;;;;0.90;0.60;;;21.50;99.90;25.10;102434.00;;;;6254757;22;20660;-73
2023/05/24 10:16:38;;;;;;;0.13;0.13;;;21.70;99.90;26.00;102425.00;;;;6254669;22;20585;-73
2023/05/24 10:19:06;;;;;;;0.28;0.28;;;21.90;99.90;26.90;102413.00;;;;6281065;22;20137;-73
2023/05/24 10:33:23;;;;;;;1.30;1.17;;;21.30;99.90;25.70;102406.00;;;;5070157;28;20981;-72
2023/05/24 10:36:20;;;;;;;0.20;0.20;;;22.10;99.90;25.60;102420.00;;;;5032844;28;20190;-73
2023/05/24 10:38:46;;;;;;;4.75;0.50;;;22.70;99.90;26.40;102407.00;;;;5045655;28;20179;-72
2023/05/24 10:41:35;;;;;;;0.43;0.40;;;22.70;99.90;27.90;102405.00;;;;5032772;28;20598;-73
2023/05/24 10:44:04;;;;;;;24.77;8.85;;;23.90;99.90;23.80;102422.00;;;;5034576;28;20182;-73
2023/05/24 10:46:31;;;;;;;0.20;0.20;;;22.40;99.90;23.20;102375.00;;;;5048876;28;20190;-72
2023/05/24 10:49:01;;;;;;;4.68;1.50;;;21.00;99.90;22.70;102423.00;;;;5044745;28;20261;-72
2023/05/24 10:51:37;;;;;;;0.50;0.50;;;20.20;99.90;25.10;102403.00;;;;5044923;28;20233;-73
2023/05/24 10:54:17;;;;;;;0.38;0.38;;;21.20;99.90;25.50;102357.00;;;;5048856;28;20178;-72
2023/05/24 10:56:49;;;;;;;0.10;0.10;;;22.20;99.90;24.60;102418.00;;;;5055557;28;20260;-72
2023/05/24 10:59:38;;;;;;;0.47;0.40;;;21.70;99.90;25.70;102369.00;;;;5049595;28;20285;-73
2023/05/24 11:02:18;;;;;;;0.75;0.75;;;21.90;99.90;24.10;102414.00;;;;5048600;28;20197;-72
2023/05/24 11:05:07;;;;;;;0.10;0.10;;;22.00;99.90;26.30;102391.00;;;;5065665;28;20205;-73
2023/05/24 11:08:25;;;;;;;1.25;0.73;;;22.40;99.90;23.50;102415.00;;;;5049535;28;20186;-72
2023/05/24 11:11:13;;;;;;;1.27;0.75;;;21.90;99.90;26.30;102405.00;;;;5046887;28;20187;-73
2023/05/24 11:13:40;;;;;;;0.32;0.32;;;22.50;99.90;24.60;102421.00;;;;5030849;28;20183;-73
2023/05/24 11:16:06;;;;;;;0.15;0.15;;;22.90;99.90;25.10;102395.00;;;;5072977;28;20182;-73
2023/05/24 11:18:37;;;;;;;1.50;0.95;;;22.30;99.90;23.30;102385.00;;;;5049528;28;20193;-72
2023/05/24 11:21:07;;;;;;;0.47;0.47;;;21.60;99.90;21.70;102431.00;;;;5048248;28;20183;-72
2023/05/24 11:23:34;;;;;;;0.10;0.10;;;20.20;99.90;23.20;102411.00;;;;5032037;28;20657;-72
2023/05/24 11:26:03;;;;;;;0.50;0.50;;;20.20;99.90;23.40;102415.00;;;;5031868;28;20675;-72
2023/05/24 11:28:31;;;;;;;0.30;0.30;;;20.60;99.90;24.50;102401.00;;;;5031424;28;20277;-73
2023/05/24 11:31:15;;;;;;;0.43;0.43;;;21.50;99.90;24.80;102406.00;;;;5031601;28;20186;-73
2023/05/24 11:33:41;;;;;;;0.30;0.30;;;21.80;99.90;24.90;102395.00;;;;5047884;28;20220;-73
2023/05/24 11:36:07;;;;;;;0.10;0.10;;;21.70;99.90;25.00;102400.00;;;;5048105;28;20265;-72
2023/05/24 11:38:41;;;;;;;0.30;0.30;;;21.70;99.90;23.30;102420.00;;;;5049336;28;20182;-72
2023/05/24 11:41:07;;;;;;;0.70;0.63;;;21.40;99.90;22.00;102414.00;;;;5031440;28;20241;-72
2023/05/24 11:44:16;;;;;;;1.95;0.30;;;20.20;99.90;24.80;102398.00;;;;5024791;28;20265;-72
2023/05/24 11:46:42;;;;;;;1.10;1.10;;;20.90;99.90;24.40;102397.00;;;;5026287;28;20641;-73
2023/05/24 11:49:13;;;;;;;6.35;1.50;;;21.50;99.90;22.50;102412.00;;;;5034487;28;20186;-72
2023/05/24 11:51:39;;;;;;;0.25;0.25;;;21.00;99.90;25.30;102397.00;;;;5034275;28;20210;-73
2023/05/24 11:54:08;;;;;;;0.10;0.10;;;21.30;99.90;24.90;102387.00;;;;5017930;28;20178;-73
2023/05/24 11:56:35;;;;;;;1.65;0.85;;;21.60;99.90;22.80;102412.00;;;;5035471;28;20194;-73
2023/05/24 11:59:22;;;;;;;1.55;1.38;;;20.70;99.90;24.20;102397.00;;;;5034170;28;20175;-72
2023/05/24 12:01:50;;;;;;;1.88;1.55;;;20.60;99.90;22.10;102414.00;;;;5058813;28;20202;-72
2023/05/24 12:04:27;;;;;;;4.85;1.10;;;20.00;99.90;22.60;102406.00;;;;5017870;28;20259;-73
2023/05/24 12:07:48;;;;;;;11.40;1.08;;;19.70;99.90;22.30;102408.00;;;;5047384;28;20223;-72
2023/05/24 12:11:10;;;;;;;0.15;0.15;;;19.40;99.90;23.20;102398.00;;;;5034108;28;20282;-72
2023/05/24 12:14:12;;;;;;;1.55;1.45;;;19.40;99.90;23.90;102390.00;;;;5014952;28;20190;-73
2023/05/24 12:17:01;;;;;;;4.57;1.60;;;20.30;99.90;23.90;102393.00;;;;5017035;28;20278;-73
2023/05/24 12:20:09;;;;;;;3.03;1.30;;;20.70;99.90;23.60;102396.00;;;;5014710;28;20187;-73
2023/05/24 12:23:20;;;;;;;0.20;0.20;;;20.80;99.90;22.80;102389.00;;;;5063321;28;20633;-72
2023/05/24 12:26:26;;;;;;;1.30;1.20;;;20.00;99.90;22.20;102337.00;;;;5017083;28;20209;-72
2023/05/24 12:29:25;;;;;;;0.50;0.50;;;19.40;99.90;23.50;102384.00;;;;5033684;28;20198;-73
2023/05/24 12:32:43;;;;;;;0.10;0.10;;;19.70;99.90;24.70;102363.00;;;;5025682;28;20231;-73
2023/05/24 12:35:52;;;;;;;4.25;0.85;;;20.60;99.90;24.00;102378.00;;;;5027741;28;20309;-73
2023/05/24 12:38:56;;;;;;;0.55;0.38;;;21.40;99.90;23.90;102370.00;;;;5017446;28;20656;-73
2023/05/24 12:42:03;;;;;;;1.33;1.23;;;20.90;99.90;23.40;102371.00;;;;5013606;28;20202;-73
2023/05/24 12:44:55;;;;;;;0.15;0.13;;;21.00;99.90;24.90;102366.00;;;;5023937;28;20199;-73
2023/05/24 12:48:22;;;;;;;1.00;1.00;;;21.00;99.90;23.30;102381.00;;;;5011838;28;20333;-73
2023/05/24 12:51:31;;;;;;;0.30;0.30;;;21.00;99.90;24.70;102358.00;;;;5032646;28;20179;-73
2023/05/24 12:54:39;;;;;;;1.42;1.08;;;20.90;99.90;25.30;102351.00;;;;5029454;28;20653;-72
2023/05/24 12:57:53;;;;;;;0.22;0.22;;;21.70;99.90;24.50;102347.00;;;;5008770;28;20297;-72
2023/05/24 13:01:11;;;;;;;0.57;0.57;;;21.50;99.90;23.40;102369.00;;;;5021602;28;20213;-72
2023/05/24 13:07:55;;;;;;;1.10;0.80;;;20.60;99.90;23.10;102369.00;;;;5025725;28;20210;-72
2023/05/24 13:11:00;;;;;;;0.63;0.52;;;20.20;99.90;22.80;102350.00;;;;5033342;28;20179;-72
2023/05/24 13:14:06;;;;;;;3.33;1.70;;;20.00;99.90;22.30;102362.00;;;;5033862;28;20194;-72
2023/05/24 13:16:59;;;;;;;0.57;0.57;;;19.90;99.90;23.80;102356.00;;;;5031182;28;20199;-72
2023/05/24 13:19:53;;;;;;;0.38;0.38;;;20.30;99.90;23.60;102357.00;;;;5013944;28;20195;-72
2023/05/24 13:22:55;;;;;;;0.20;0.20;;;20.40;99.90;24.80;102326.00;;;;5033011;28;20218;-72
2023/05/24 13:26:08;;;;;;;1.45;0.93;;;20.80;99.90;24.50;102225.00;;;;5027721;28;20641;-73
2023/05/24 13:29:26;;;;;;;0.43;0.43;;;21.10;99.90;23.70;102329.00;;;;5013490;28;20652;-72
2023/05/24 13:32:20;;;;;;;0.10;0.10;;;20.90;99.90;25.10;102317.00;;;;5030681;28;20302;-72
2023/05/24 13:35:26;;;;;;;1.85;1.75;;;21.10;99.90;24.90;102327.00;;;;5028649;28;20241;-72
2023/05/24 13:38:45;;;;;;;0.88;0.73;;;21.60;99.90;24.80;102327.00;;;;5015891;28;20651;-72
2023/05/24 13:41:51;;;;;;;0.70;0.70;;;21.20;99.90;24.40;102325.00;;;;5032518;28;20199;-72
2023/05/24 13:44:42;;;;;;;2.15;0.45;;;21.10;99.90;23.90;102321.00;;;;5028180;28;20656;-72
2023/05/24 13:47:49;;;;;;;1.25;1.20;;;20.90;99.90;22.10;102349.00;;;;5015857;28;20712;-72
2023/05/24 13:50:54;;;;;;;0.52;0.50;;;20.00;99.90;23.30;102297.00;;;;5020410;28;20249;-72
2023/05/24 13:54:01;;;;;;;1.00;0.88;;;19.90;99.90;22.70;102340.00;;;;5022605;28;20630;-72
2023/05/24 13:57:10;;;;;;;0.10;0.10;;;20.10;99.90;22.40;102345.00;;;;5023734;28;20187;-72
2023/05/24 14:00:11;;;;;;;0.35;0.35;;;19.70;99.90;24.20;102304.00;;;;5053863;28;20202;-72
2023/05/24 14:03:29;;;;;;;0.10;0.10;;;20.30;99.90;23.70;102311.00;;;;5030204;28;20545;-72
2023/05/24 14:06:48;;;;;;;0.35;0.30;;;20.50;99.90;22.80;102351.00;;;;5032016;28;20253;-72
2023/05/24 14:10:02;;;;;;;0.20;0.20;;;20.00;99.90;22.90;102344.00;;;;5021878;28;20195;-72
2023/05/24 14:13:13;;;;;;;0.75;0.52;;;19.90;99.90;23.20;102342.00;;;;5031843;28;20202;-72
2023/05/24 14:16:28;;;;;;;1.65;1.10;;;20.20;99.90;23.00;102349.00;;;;5021649;28;20194;-72
2023/05/24 14:19:33;;;;;;;0.43;0.40;;;20.60;99.90;22.20;102343.00;;;;5015584;28;20265;-72
2023/05/24 14:22:54;;;;;;;0.40;0.38;;;19.90;99.90;22.10;102345.00;;;;5019582;28;20202;-73
2023/05/24 14:26:05;;;;;;;0.20;0.20;;;19.60;99.90;22.60;102351.00;;;;5055177;28;20187;-72
2023/05/24 14:29:09;;;;;;;6.65;1.77;;;19.60;99.90;21.40;102358.00;;;;5028858;28;20273;-72
2023/05/24 14:32:16;;;;;;;0.20;0.20;;;19.40;99.90;21.80;102344.00;;;;5010289;28;20206;-72
2023/05/24 14:35:20;;;;;;;0.38;0.30;;;19.30;99.90;22.20;102344.00;;;;5023018;28;20263;-72
2023/05/24 14:38:28;;;;;;;4.03;0.60;;;19.40;99.90;22.90;102352.00;;;;5012414;28;20270;-72
2023/05/24 14:41:34;;;;;;;0.22;0.22;;;19.90;99.90;23.10;102347.00;;;;5031410;28;20633;-72
2023/05/24 14:44:43;;;;;;;0.47;0.40;;;20.30;99.90;22.70;102342.00;;;;5017278;28;20620;-72
2023/05/24 14:47:26;;;;;;;0.10;0.10;;;19.80;99.90;22.70;102350.00;;;;5017582;28;20193;-72
2023/05/24 14:50:27;;;;;;;2.75;1.08;;;19.70;99.90;23.00;102344.00;;;;5016783;28;20183;-72
2023/05/24 14:53:14;;;;;;;0.90;0.57;;;20.10;99.90;23.50;102298.00;;;;5031095;28;20255;-72
2023/05/24 14:56:08;;;;;;;0.52;0.52;;;20.20;99.90;24.40;102332.00;;;;5013082;28;20187;-72
2023/05/24 14:59:22;;;;;;;1.02;0.60;;;20.70;99.90;23.90;102343.00;;;;5029030;28;20179;-72
2023/05/24 15:02:11;;;;;;;0.30;0.30;;;20.80;99.90;23.40;102336.00;;;;5027246;28;20193;-72
2023/05/24 15:04:54;;;;;;;0.63;0.22;;;20.60;99.90;22.90;102340.00;;;;5009812;28;20191;-72
2023/05/24 15:07:30;;;;;;;0.85;0.75;;;20.00;99.90;22.40;102344.00;;;;5014619;28;20255;-72
2023/05/24 15:10:14;;;;;;;0.70;0.47;;;20.00;99.90;22.70;102341.00;;;;5030016;28;20206;-72
2023/05/24 15:13:04;;;;;;;0.10;0.10;;;19.90;99.90;23.20;102324.00;;;;5011157;28;20219;-72
2023/05/24 15:16:14;;;;;;;1.88;0.85;;;20.20;99.90;24.00;102313.00;;;;5044535;28;20199;-72
2023/05/24 15:19:03;;;;;;;0.20;0.20;;;20.30;99.90;24.50;102333.00;;;;5032604;28;20212;-72
2023/05/24 15:21:51;;;;;;;0.55;0.55;;;20.80;99.90;24.00;102333.00;;;;5042781;28;20175;-72
2023/05/24 15:24:55;;;;;;;0.55;0.50;;;20.70;99.90;23.20;102338.00;;;;5012126;28;20653;-72
2023/05/24 15:27:41;;;;;;;0.35;0.32;;;20.20;99.90;23.90;102334.00;;;;5047608;28;20226;-72
2023/05/24 15:30:27;;;;;;;1.00;0.30;;;20.40;99.90;22.90;102334.00;;;;5018441;28;20273;-72
2023/05/24 15:33:19;;;;;;;0.57;0.50;;;20.00;99.90;22.90;102336.00;;;;5044848;28;20213;-72
2023/05/24 15:36:25;;;;;;;0.77;0.73;;;20.10;99.90;22.60;102333.00;;;;5061195;28;20237;-72
2023/05/24 15:39:22;;;;;;;0.20;0.20;;;19.70;99.90;22.40;102336.00;;;;5028137;28;20196;-72
2023/05/24 15:42:13;;;;;;;0.20;0.20;;;19.50;99.90;23.40;102318.00;;;;5029175;28;20256;-72
2023/05/24 15:44:49;;;;;;;0.57;0.57;;;19.70;99.90;23.10;102334.00;;;;5034429;28;20669;-72
2023/05/24 15:47:57;;;;;;;12.35;0.90;;;19.90;99.90;22.50;102331.00;;;;5014799;28;20207;-72
2023/05/24 15:50:31;;;;;;;0.55;0.30;;;19.60;99.90;22.50;102295.00;;;;5008972;28;20198;-72
2023/05/24 15:53:03;;;;;;;0.35;0.35;;;19.70;99.90;22.10;102335.00;;;;5016996;28;20209;-72
2023/05/24 15:56:09;;;;;;;1.27;1.17;;;19.50;99.90;23.50;102329.00;;;;5029710;28;20183;-72
2023/05/24 15:59:08;;;;;;;5.50;0.63;;;19.80;99.90;24.10;102322.00;;;;5048699;28;20193;-72
2023/05/24 16:02:12;;;;;;;2.95;1.08;;;20.30;99.90;22.80;102329.00;;;;5029864;28;20264;-72
2023/05/24 16:04:59;;;;;;;0.10;0.10;;;20.20;99.90;23.10;102322.00;;;;5029401;28;20199;-72
2023/05/24 16:07:51;;;;;;;0.20;0.20;;;19.70;99.90;22.80;102331.00;;;;5034451;28;20197;-72
2023/05/24 16:10:37;;;;;;;0.13;0.13;;;19.80;99.90;22.80;102342.00;;;;5034266;28;20272;-72
2023/05/24 16:13:11;;;;;;;0.10;0.10;;;19.70;99.90;23.50;102321.00;;;;5035147;28;20221;-72
2023/05/24 16:16:24;;;;;;;0.80;0.80;;;19.80;99.90;23.20;102325.00;;;;5017850;28;20277;-72
2023/05/24 16:19:31;;;;;;;1.20;1.10;;;19.80;99.90;23.00;102330.00;;;;5011227;28;20629;-72
2023/05/24 16:22:17;;;;;;;0.10;0.10;;;19.70;99.90;23.50;102283.00;;;;5022258;28;20555;-72
2023/05/24 16:25:06;;;;;;;0.85;0.52;;;19.80;99.90;22.00;102324.00;;;;5032717;28;20191;-72
2023/05/24 16:27:59;;;;;;;0.55;0.55;;;19.40;99.90;22.40;102322.00;;;;5017380;28;20191;-72
2023/05/24 16:31:01;;;;;;;1.38;1.27;;;19.50;99.90;21.70;102326.00;;;;5017427;28;20232;-72
2023/05/24 16:33:52;;;;;;;6.03;0.93;;;19.10;99.90;21.70;102272.00;;;;5029303;28;20772;-72
2023/05/24 16:36:28;;;;;;;0.20;0.20;;;18.90;99.90;22.40;102326.00;;;;5030770;28;20194;-72
2023/05/24 16:39:20;;;;;;;0.10;0.10;;;19.10;99.90;22.10;102318.00;;;;5031168;28;20633;-72
2023/05/24 16:42:38;;;;;;;0.13;0.13;;;19.00;99.90;23.10;102311.00;;;;5033774;28;20194;-72
2023/05/24 16:45:42;;;;;;;0.85;0.52;;;19.40;99.90;22.60;102319.00;;;;5010940;28;20543;-72
2023/05/24 16:48:30;;;;;;;1.17;1.00;;;19.80;99.90;22.50;102308.00;;;;5017986;28;20190;-72
2023/05/24 16:51:33;;;;;;;0.30;0.30;;;19.40;99.90;22.60;102320.00;;;;5048144;28;20281;-72
2023/05/24 16:54:40;;;;;;;2.75;0.40;;;19.20;99.90;22.00;102296.00;;;;5026670;28;20595;-72
2023/05/24 16:57:29;;;;;;;0.10;0.10;;;19.20;99.90;22.50;102313.00;;;;5017104;28;20580;-72
2023/05/24 17:00:18;;;;;;;0.10;0.10;;;19.20;99.90;22.70;102309.00;;;;5033615;28;20187;-72
2023/05/24 17:03:12;;;;;;;3.85;1.55;;;19.30;99.90;21.70;102276.00;;;;5033001;28;20646;-72
2023/05/24 17:06:23;;;;;;;0.38;0.38;;;18.80;99.90;22.30;102320.00;;;;5052638;28;20260;-72
2023/05/24 17:09:33;;;;;;;0.55;0.55;;;18.80;99.90;22.00;102313.00;;;;5033671;28;20182;-72
2023/05/24 17:12:35;;;;;;;0.55;0.55;;;18.90;99.90;21.10;102330.00;;;;5031635;28;20221;-72
2023/05/24 17:15:19;;;;;;;4.43;0.93;;;18.60;99.90;21.20;102327.00;;;;5018454;28;20185;-72
2023/05/24 17:18:29;;;;;;;4.70;2.03;;;18.30;99.90;21.30;102316.00;;;;5016414;28;20200;-72
2023/05/24 17:21:30;;;;;;;0.57;0.57;;;18.50;99.90;21.70;102316.00;;;;5033010;28;20184;-72
2023/05/24 17:24:21;;;;;;;2.05;0.75;;;18.50;99.90;20.70;102316.00;;;;5030212;28;20196;-72
2023/05/24 17:27:06;;;;;;;0.82;0.82;;;18.30;99.90;20.70;102331.00;;;;5016110;28;20479;-72
2023/05/24 17:30:02;;;;;;;0.90;0.57;;;18.20;99.90;21.30;102312.00;;;;5016095;28;20197;-72
2023/05/24 17:33:07;;;;;;;0.20;0.20;;;18.10;99.90;21.90;102262.00;;;;5017360;28;20683;-71
2023/05/24 17:36:11;;;;;;;0.20;0.20;;;18.20;99.90;20.80;102306.00;;;;5017771;28;20198;-72
2023/05/24 17:39:03;;;;;;;0.30;0.30;;;18.00;99.90;21.10;102313.00;;;;5048982;28;20211;-72
2023/05/24 17:41:52;;;;;;;0.50;0.50;;;18.00;99.90;20.70;102292.00;;;;5032064;28;20196;-72
2023/05/24 17:44:58;;;;;;;0.30;0.30;;;17.90;99.90;21.60;102311.00;;;;5029067;28;20205;-72
2023/05/24 17:48:03;;;;;;;0.17;0.17;;;18.10;99.90;22.00;102306.00;;;;5031849;28;20271;-72
2023/05/24 17:50:57;;;;;;;1.20;0.87;;;18.40;99.90;21.50;102313.00;;;;5029722;28;20212;-72
2023/05/24 17:53:52;;;;;;;0.90;0.90;;;18.50;99.90;22.10;102314.00;;;;5006287;28;20218;-72
2023/05/24 18:00:36;;;;;;;0.43;0.43;;;18.60;99.90;22.40;102308.00;;;;5022591;28;20594;-72
2023/05/24 18:03:43;;;;;;;0.77;0.60;;;18.80;99.90;21.20;102348.00;;;;5014461;28;20301;-72
2023/05/24 18:06:38;;;;;;;0.10;0.10;;;18.30;99.90;20.90;102332.00;;;;5026514;28;20721;-72
2023/05/24 18:09:38;;;;;;;0.47;0.47;;;18.10;99.90;21.00;102337.00;;;;5032120;28;20651;-72
2023/05/24 18:12:46;;;;;;;0.37;0.37;;;18.00;99.90;21.70;102333.00;;;;5013712;28;20209;-72
2023/05/24 18:15:53;;;;;;;2.57;0.83;;;18.00;99.90;20.90;102342.00;;;;5029028;28;20199;-72
2023/05/24 18:19:14;;;;;;;0.20;0.20;;;17.80;99.90;20.80;102342.00;;;;5029077;28;20223;-72
2023/05/24 18:22:04;;;;;;;0.13;0.13;;;17.60;99.90;20.80;102348.00;;;;5012181;28;20222;-72
2023/05/24 18:25:08;;;;;;;0.20;0.20;;;17.80;99.90;21.30;102349.00;;;;5026759;28;20202;-72
2023/05/24 18:28:02;;;;;;;0.20;0.20;;;17.80;99.90;21.40;102300.00;;;;5045361;28;20190;-72
2023/05/24 18:30:51;;;;;;;0.17;0.17;;;17.80;99.90;20.50;102361.00;;;;5027980;28;20715;-72
2023/05/24 18:33:40;;;;;;;0.20;0.20;;;17.70;99.90;21.20;102316.00;;;;5010825;28;20656;-72
2023/05/24 18:36:31;;;;;;;0.60;0.60;;;17.60;99.90;21.20;102299.00;;;;4991704;28;20283;-72
2023/05/24 18:39:37;;;;;;;0.20;0.20;;;17.90;99.90;21.00;102350.00;;;;4991173;28;20208;-72
2023/05/24 18:42:45;;;;;;;0.53;0.53;;;17.80;99.90;20.40;102372.00;;;;4975040;28;20295;-72
2023/05/24 18:45:41;;;;;;;0.93;0.93;;;17.40;99.90;21.40;102338.00;;;;4989145;28;20279;-72
2023/05/24 18:48:47;;;;;;;0.40;0.40;;;17.60;99.90;19.70;102371.00;;;;4990719;28;20222;-72
2023/05/24 18:51:59;;;;;;;0.30;0.30;;;17.50;99.90;20.90;102361.00;;;;4968360;28;20694;-72
2023/05/24 18:55:14;;;;;;;0.30;0.30;;;17.30;99.90;21.20;102316.00;;;;4993913;28;20239;-72
2023/05/24 18:58:13;;;;;;;0.30;0.30;;;17.60;99.90;20.50;102362.00;;;;4978915;28;20194;-72
2023/05/24 19:01:26;;;;;;;0.50;0.50;;;17.50;99.90;20.00;102372.00;;;;5032702;28;20192;-72
2023/05/24 19:04:48;;;;;;;0.57;0.57;;;17.20;99.90;18.90;102369.00;;;;5016873;28;20232;-72
2023/05/24 19:07:49;;;;;;;0.60;0.60;;;16.60;99.90;19.20;102317.00;;;;5030555;28;20625;-72
2023/05/24 19:11:00;;;;;;;0.47;0.47;;;16.40;99.90;19.10;102355.00;;;;5022303;28;20197;-72
2023/05/24 19:14:06;;;;;;;0.40;0.40;;;16.60;99.90;19.40;102327.00;;;;5029454;28;20195;-72
2023/05/24 19:17:00;;;;;;;0.10;0.10;;;16.50;99.90;18.90;102353.00;;;;5030944;28;20191;-71
2023/05/24 19:20:13;;;;;;;0.20;0.20;;;16.40;99.90;19.20;102323.00;;;;5016355;28;20195;-72
2023/05/24 19:23:22;;;;;;;0.30;0.30;;;16.40;99.90;19.50;102317.00;;;;5024473;28;20244;-72
2023/05/24 19:26:26;;;;;;;4.10;0.73;;;16.40;99.90;19.10;102334.00;;;;5020677;28;20667;-72
2023/05/24 19:29:50;;;;;;;2.83;0.40;;;16.40;99.90;18.50;102334.00;;;;5017463;28;20664;-72
2023/05/24 19:33:06;;;;;;;0.50;0.50;;;16.10;99.90;18.20;102330.00;;;;5035055;28;20212;-72
2023/05/24 19:36:24;;;;;;;0.40;0.20;;;15.90;99.90;18.10;102312.00;;;;5014723;28;20294;-72
2023/05/24 19:39:42;;;;;;;0.97;0.97;;;15.80;99.90;18.20;102321.00;;;;5030897;28;20183;-71